Time;durP1;ratioP1;P1;durP2;ratioP2;P2;SDS_P1;SDS_P2;PMS_P1;PMS_P2;Temp;Humidity;BMP_temperature;BMP_pressure;BME280_temperature;BME280_humidity;BME280_pressure;Samples;Min_cycle;Max_cycle;Signal;HPM_P1;HPM_P2
2021/11/15 00:01:53;;;;;;;74.17;33.97;;;7.40;99.90;;;;;;4950212;29;20238;-61
2021/11/15 00:04:23;;;;;;;72.87;35.00;;;7.30;99.90;;;;;;4950545;28;20254;-61
2021/11/15 00:06:52;;;;;;;66.57;32.97;;;7.30;99.90;;;;;;4950714;28;20326;-60
2021/11/15 00:09:20;;;;;;;72.07;33.83;;;7.30;99.90;;;;;;4950954;29;20345;-61
2021/11/15 00:11:49;;;;;;;79.07;34.87;;;7.30;99.90;;;;;;4949311;29;20754;-59
2021/11/15 00:14:18;;;;;;;78.60;34.67;;;7.30;99.90;;;;;;4950396;29;20239;-60
2021/11/15 00:16:47;;;;;;;81.23;34.30;;;7.30;99.90;;;;;;4949745;29;20246;-61
2021/11/15 00:19:15;;;;;;;69.93;33.53;;;7.30;99.90;;;;;;4949881;28;20239;-60
2021/11/15 00:21:43;;;;;;;77.07;34.33;;;7.30;99.90;;;;;;4949441;29;20737;-60
2021/11/15 00:24:12;;;;;;;75.80;34.20;;;7.30;99.90;;;;;;4948473;29;20329;-60
2021/11/15 00:26:40;;;;;;;76.17;34.60;;;7.20;99.90;;;;;;4950238;29;20261;-59
2021/11/15 00:29:08;;;;;;;76.27;34.90;;;7.30;99.90;;;;;;4949919;29;20239;-60
2021/11/15 00:31:38;;;;;;;74.27;33.27;;;7.20;99.90;;;;;;4949501;28;20247;-61
2021/11/15 00:34:06;;;;;;;76.53;32.83;;;7.20;99.90;;;;;;4949513;28;20691;-60
2021/11/15 00:36:34;;;;;;;73.37;33.57;;;7.20;99.90;;;;;;4950276;29;20265;-60
2021/11/15 00:39:03;;;;;;;74.23;33.30;;;7.20;99.90;;;;;;4950248;29;20228;-60
2021/11/15 00:41:31;;;;;;;76.17;32.73;;;7.20;99.90;;;;;;4949789;29;20235;-60
2021/11/15 00:43:59;;;;;;;71.07;32.83;;;7.10;99.90;;;;;;4949605;28;20235;-60
2021/11/15 00:46:28;;;;;;;74.13;32.93;;;7.10;99.90;;;;;;4947990;28;20294;-59
2021/11/15 00:48:57;;;;;;;79.87;34.83;;;7.10;99.90;;;;;;4950304;29;20247;-60
2021/11/15 00:51:27;;;;;;;71.83;33.80;;;7.10;99.90;;;;;;4948824;29;20659;-60
2021/11/15 00:53:57;;;;;;;67.00;29.90;;;7.10;99.90;;;;;;4949663;28;20322;-61
2021/11/15 00:56:26;;;;;;;78.30;31.97;;;7.20;99.90;;;;;;4949207;29;20794;-62
2021/11/15 00:58:54;;;;;;;79.07;33.40;;;7.20;99.90;;;;;;4950116;29;20270;-60
2021/11/15 01:01:23;;;;;;;78.93;33.27;;;7.10;99.90;;;;;;4949205;29;20239;-59
2021/11/15 01:03:51;;;;;;;77.23;32.17;;;7.10;99.90;;;;;;4949513;28;20234;-59
2021/11/15 01:06:20;;;;;;;82.97;32.40;;;7.10;99.90;;;;;;4949310;29;20770;-59
2021/11/15 01:08:49;;;;;;;76.83;32.87;;;7.20;99.90;;;;;;4949567;29;20709;-60
2021/11/15 01:11:17;;;;;;;77.07;33.67;;;7.10;99.90;;;;;;4949061;29;20326;-60
2021/11/15 01:13:45;;;;;;;84.90;32.87;;;7.10;99.90;;;;;;4948670;29;20330;-60
2021/11/15 01:16:14;;;;;;;79.97;31.70;;;7.10;99.90;;;;;;4948646;29;20243;-59
2021/11/15 01:18:43;;;;;;;78.13;33.03;;;7.10;99.90;;;;;;4949438;29;20235;-60
2021/11/15 01:21:13;;;;;;;79.83;32.40;;;7.20;99.90;;;;;;4946303;28;20246;-60
2021/11/15 01:23:42;;;;;;;78.27;32.70;;;7.20;99.90;;;;;;4949343;29;20245;-60
2021/11/15 01:26:11;;;;;;;79.07;31.60;;;7.20;99.90;;;;;;4948625;28;20274;-61
2021/11/15 01:28:39;;;;;;;78.20;32.40;;;7.10;99.90;;;;;;4949186;29;20235;-60
2021/11/15 01:31:07;;;;;;;80.93;33.57;;;7.10;99.90;;;;;;4948625;28;20239;-60
2021/11/15 01:33:35;;;;;;;77.97;32.47;;;7.10;99.90;;;;;;4949121;29;20239;-62
2021/11/15 01:36:03;;;;;;;81.20;33.43;;;7.10;99.90;;;;;;4948129;29;20778;-60
2021/11/15 01:38:33;;;;;;;77.10;32.43;;;7.10;99.90;;;;;;4949519;29;20231;-60
2021/11/15 01:41:03;;;;;;;82.67;32.43;;;7.10;99.90;;;;;;4948911;29;20266;-59
2021/11/15 01:43:31;;;;;;;83.77;32.27;;;7.10;99.90;;;;;;4949002;29;20231;-59
2021/11/15 01:45:59;;;;;;;80.20;35.43;;;7.10;99.90;;;;;;4948785;28;20290;-60
2021/11/15 01:48:27;;;;;;;76.77;33.33;;;7.00;99.90;;;;;;4946780;28;20235;-61
2021/11/15 01:50:56;;;;;;;77.67;33.47;;;7.00;99.90;;;;;;4948292;28;20290;-59
2021/11/15 01:53:24;;;;;;;81.37;33.57;;;7.00;99.90;;;;;;4948749;29;20239;-60
2021/11/15 01:55:52;;;;;;;77.80;33.00;;;7.00;99.90;;;;;;4948569;29;20813;-59
2021/11/15 01:58:22;;;;;;;76.43;32.60;;;7.00;99.90;;;;;;4944452;29;20243;-60
2021/11/15 02:00:54;;;;;;;82.47;33.53;;;7.00;99.90;;;;;;4948183;29;20313;-60
2021/11/15 02:03:24;;;;;;;79.17;31.97;;;7.00;99.90;;;;;;4948636;29;20247;-60
2021/11/15 02:05:54;;;;;;;76.60;33.00;;;7.10;99.90;;;;;;4948876;29;20240;-60
2021/11/15 02:08:22;;;;;;;83.30;34.13;;;7.10;99.90;;;;;;4948432;28;20684;-60
2021/11/15 02:10:50;;;;;;;79.60;33.40;;;7.10;99.90;;;;;;4948131;29;20241;-61
2021/11/15 02:13:20;;;;;;;80.27;33.97;;;7.10;99.90;;;;;;4948200;29;20273;-61
2021/11/15 02:15:51;;;;;;;79.73;34.13;;;7.00;99.90;;;;;;4948333;29;20319;-60
2021/11/15 02:18:20;;;;;;;80.53;33.73;;;7.00;99.90;;;;;;4948464;29;20338;-60
2021/11/15 02:20:52;;;;;;;88.87;35.20;;;6.90;99.90;;;;;;4947883;29;20663;-61
2021/11/15 02:23:22;;;;;;;88.20;36.03;;;6.90;99.90;;;;;;4951866;28;20285;-60
2021/11/15 02:25:54;;;;;;;83.73;33.43;;;7.00;99.90;;;;;;4948259;29;20325;-59
2021/11/15 02:28:25;;;;;;;83.90;35.53;;;7.00;99.90;;;;;;4948410;29;20294;-60
2021/11/15 02:30:54;;;;;;;82.83;35.00;;;7.00;99.90;;;;;;4947885;29;20697;-59
2021/11/15 02:33:22;;;;;;;85.43;35.77;;;7.00;99.90;;;;;;4948418;29;20698;-59
2021/11/15 02:35:52;;;;;;;81.10;32.90;;;7.10;99.90;;;;;;4947818;28;20235;-60
2021/11/15 02:38:20;;;;;;;85.33;35.97;;;7.10;99.90;;;;;;4947960;28;20714;-60
2021/11/15 02:40:48;;;;;;;86.10;36.20;;;7.10;99.90;;;;;;4947643;29;20238;-61
2021/11/15 02:43:17;;;;;;;85.33;34.57;;;7.00;99.90;;;;;;4950787;28;20754;-60
2021/11/15 02:45:45;;;;;;;84.00;34.67;;;7.00;99.90;;;;;;4951588;28;20262;-60
2021/11/15 02:48:14;;;;;;;82.87;34.47;;;7.10;99.90;;;;;;4951768;28;20592;-61
2021/11/15 02:50:42;;;;;;;80.17;34.20;;;7.00;99.90;;;;;;4951623;29;20675;-60
2021/11/15 02:53:11;;;;;;;85.70;34.77;;;7.10;99.90;;;;;;4951698;29;20369;-60
2021/11/15 02:55:40;;;;;;;80.77;34.87;;;7.00;99.90;;;;;;4951865;29;20742;-59
2021/11/15 02:58:09;;;;;;;84.83;36.50;;;7.00;99.90;;;;;;4951619;29;20719;-59
2021/11/15 03:00:42;;;;;;;88.30;36.37;;;7.00;99.90;;;;;;4950774;29;20239;-59
2021/11/15 03:03:12;;;;;;;79.97;36.33;;;7.00;99.90;;;;;;4951784;28;20803;-60
2021/11/15 03:05:42;;;;;;;76.20;34.53;;;7.00;99.90;;;;;;4951527;29;20250;-59
2021/11/15 03:08:12;;;;;;;85.33;35.20;;;7.00;99.90;;;;;;4951325;29;20239;-59
2021/11/15 03:10:43;;;;;;;82.63;35.00;;;7.00;99.90;;;;;;4951102;29;20246;-61
2021/11/15 03:13:14;;;;;;;75.87;34.30;;;7.00;99.90;;;;;;4949129;29;20238;-60
2021/11/15 03:15:44;;;;;;;79.13;35.80;;;7.00;99.90;;;;;;4951294;29;20282;-60
2021/11/15 03:18:23;;;;;;;73.83;31.40;;;7.00;99.90;;;;;;4950945;29;20487;-59
2021/11/15 03:20:56;;;;;;;81.30;34.27;;;7.20;99.90;;;;;;4950608;29;20272;-61
2021/11/15 03:23:28;;;;;;;80.43;34.80;;;7.10;99.90;;;;;;4951501;29;20336;-60
2021/11/15 03:25:58;;;;;;;82.30;36.33;;;7.20;99.90;;;;;;4947103;29;20243;-60
2021/11/15 03:28:28;;;;;;;86.57;36.13;;;7.10;99.90;;;;;;4945149;28;20258;-60
2021/11/15 03:30:57;;;;;;;81.90;35.50;;;7.10;99.90;;;;;;4950823;29;20243;-60
2021/11/15 03:33:30;;;;;;;85.53;35.33;;;7.20;99.90;;;;;;4950868;29;20584;-60
2021/11/15 03:35:58;;;;;;;83.23;35.40;;;7.20;99.90;;;;;;4951405;29;20273;-60
2021/11/15 03:38:28;;;;;;;83.00;34.23;;;7.10;99.90;;;;;;4950753;29;20267;-60
2021/11/15 03:40:57;;;;;;;87.07;34.93;;;7.10;99.90;;;;;;4950477;29;20734;-61
2021/11/15 03:43:25;;;;;;;83.13;35.57;;;7.10;99.90;;;;;;4950529;29;20635;-60
2021/11/15 03:45:53;;;;;;;81.33;35.77;;;7.10;99.90;;;;;;4950561;28;20247;-59
2021/11/15 03:48:21;;;;;;;86.77;36.30;;;7.10;99.90;;;;;;4951262;29;20262;-60
2021/11/15 03:50:54;;;;;;;79.13;35.23;;;7.10;99.90;;;;;;4950485;28;20227;-59
2021/11/15 03:53:25;;;;;;;84.10;36.67;;;7.00;99.90;;;;;;4950038;28;21542;-59
2021/11/15 03:55:54;;;;;;;85.40;35.47;;;7.00;99.90;;;;;;4946009;28;20672;-59
2021/11/15 03:58:23;;;;;;;82.70;36.43;;;7.10;99.90;;;;;;4950832;29;20297;-60
2021/11/15 04:00:51;;;;;;;89.00;36.60;;;7.00;99.90;;;;;;4950402;28;20331;-60
2021/11/15 04:03:29;;;;;;;87.13;36.60;;;7.10;99.90;;;;;;4951269;29;20655;-60
2021/11/15 04:06:02;;;;;;;82.53;35.53;;;7.10;99.90;;;;;;4951313;29;20691;-59
2021/11/15 04:08:31;;;;;;;85.30;36.93;;;7.10;99.90;;;;;;4944151;29;20259;-59
2021/11/15 04:11:01;;;;;;;97.23;38.13;;;7.10;99.90;;;;;;4951225;29;20259;-60
2021/11/15 04:13:33;;;;;;;81.57;37.30;;;7.00;99.90;;;;;;4951316;29;20235;-60
2021/11/15 04:16:04;;;;;;;82.57;37.03;;;7.00;99.90;;;;;;4951218;29;20718;-60
2021/11/15 04:18:35;;;;;;;76.57;34.00;;;7.10;99.90;;;;;;4943532;28;20636;-60
2021/11/15 04:21:06;;;;;;;82.57;36.43;;;7.10;99.90;;;;;;4949817;29;20463;-60
2021/11/15 04:23:35;;;;;;;79.83;37.03;;;7.00;99.90;;;;;;4950427;29;20318;-60
2021/11/15 04:26:05;;;;;;;81.97;35.40;;;7.10;99.90;;;;;;4950103;29;20239;-61
2021/11/15 04:28:33;;;;;;;78.03;35.40;;;7.10;99.90;;;;;;4949831;29;20258;-59
2021/11/15 04:31:02;;;;;;;81.70;36.30;;;7.00;99.90;;;;;;4949645;29;20691;-61
2021/11/15 04:33:30;;;;;;;79.67;36.20;;;7.00;99.90;;;;;;4944938;29;20227;-59
2021/11/15 04:35:58;;;;;;;82.83;36.30;;;7.00;99.90;;;;;;4950098;28;20290;-60
2021/11/15 04:38:26;;;;;;;76.93;33.93;;;7.00;99.90;;;;;;4949762;28;20246;-60
2021/11/15 04:40:55;;;;;;;85.40;37.27;;;7.00;99.90;;;;;;4949786;29;20270;-59
2021/11/15 04:43:24;;;;;;;78.37;35.23;;;7.00;99.90;;;;;;4949577;29;20250;-60
2021/11/15 04:45:52;;;;;;;71.77;34.33;;;7.00;99.90;;;;;;4949224;28;20641;-62
2021/11/15 04:48:21;;;;;;;80.53;36.30;;;7.00;99.90;;;;;;4950207;29;20298;-60
2021/11/15 04:50:49;;;;;;;78.37;35.03;;;7.00;99.90;;;;;;4949533;29;20317;-60
2021/11/15 04:53:17;;;;;;;73.03;34.60;;;7.00;99.90;;;;;;4947251;28;20294;-60
2021/11/15 04:55:45;;;;;;;74.20;34.17;;;7.10;99.90;;;;;;4949572;28;20743;-60
2021/11/15 04:58:13;;;;;;;78.73;36.60;;;7.10;99.90;;;;;;4949975;29;20250;-59
2021/11/15 05:00:43;;;;;;;79.33;35.10;;;7.10;99.90;;;;;;4949479;29;20240;-61
2021/11/15 05:03:13;;;;;;;77.97;36.00;;;7.00;99.90;;;;;;4949222;28;20741;-60
2021/11/15 05:05:42;;;;;;;80.30;35.23;;;7.00;99.90;;;;;;4949338;28;20231;-60
2021/11/15 05:08:11;;;;;;;77.37;34.80;;;7.00;99.90;;;;;;4949363;29;20242;-61
2021/11/15 05:10:39;;;;;;;73.27;35.13;;;7.00;99.90;;;;;;4949030;29;20270;-60
2021/11/15 05:13:08;;;;;;;81.67;36.63;;;6.90;99.90;;;;;;4949402;29;20246;-59
2021/11/15 05:15:36;;;;;;;78.87;35.33;;;6.90;99.90;;;;;;4949423;29;20322;-60
2021/11/15 05:18:05;;;;;;;82.07;36.37;;;6.90;99.90;;;;;;4949156;28;20719;-59
2021/11/15 05:20:33;;;;;;;83.47;37.47;;;6.90;99.90;;;;;;4948117;29;20381;-59
2021/11/15 05:23:01;;;;;;;86.37;36.50;;;6.90;99.90;;;;;;4947712;29;20227;-60
2021/11/15 05:25:30;;;;;;;84.17;35.67;;;6.90;99.90;;;;;;4949221;29;20241;-60
2021/11/15 05:27:58;;;;;;;79.67;36.07;;;7.00;99.90;;;;;;4949908;29;20333;-60
2021/11/15 05:30:26;;;;;;;80.83;35.17;;;6.90;99.90;;;;;;4947911;28;20699;-60
2021/11/15 05:32:55;;;;;;;79.07;36.50;;;7.00;99.90;;;;;;4948908;29;20231;-59
2021/11/15 05:35:49;;;;;;;75.50;33.80;;;6.90;99.90;;;;;;4943198;29;20228;-59
2021/11/15 05:38:17;;;;;;;83.03;36.43;;;7.00;99.90;;;;;;4949072;29;20242;-59
2021/11/15 05:40:45;;;;;;;77.97;35.27;;;6.90;99.90;;;;;;4948296;29;20329;-60
2021/11/15 05:43:13;;;;;;;72.47;33.70;;;6.90;99.90;;;;;;4947740;29;20314;-60
2021/11/15 05:45:41;;;;;;;79.50;36.87;;;6.90;99.90;;;;;;4941696;28;20285;-60
2021/11/15 05:48:10;;;;;;;74.93;34.17;;;6.90;99.90;;;;;;4948264;29;20297;-60
2021/11/15 05:50:42;;;;;;;70.00;33.53;;;6.90;99.90;;;;;;4948018;29;20235;-59
2021/11/15 05:53:14;;;;;;;71.93;34.47;;;6.80;99.90;;;;;;4947811;28;20234;-61
2021/11/15 05:55:42;;;;;;;76.77;35.10;;;6.80;99.90;;;;;;4947624;28;20621;-61
2021/11/15 05:58:10;;;;;;;70.40;34.13;;;6.80;99.90;;;;;;4948032;28;20664;-60
2021/11/15 06:00:39;;;;;;;77.10;35.50;;;6.90;99.90;;;;;;4946951;28;20231;-60
2021/11/15 06:03:07;;;;;;;71.00;35.13;;;6.80;99.90;;;;;;4948207;29;20326;-60
2021/11/15 06:05:36;;;;;;;72.50;37.37;;;6.80;99.90;;;;;;4948100;29;20262;-60
2021/11/15 06:08:05;;;;;;;65.10;33.73;;;6.70;99.90;;;;;;4948255;29;20322;-61
2021/11/15 06:10:34;;;;;;;74.63;34.47;;;6.70;99.90;;;;;;4947932;29;20237;-61
2021/11/15 06:13:05;;;;;;;74.97;36.07;;;6.70;99.90;;;;;;4947765;29;20878;-60
2021/11/15 06:15:33;;;;;;;69.90;34.60;;;6.70;99.90;;;;;;4947717;28;20236;-60
2021/11/15 06:18:02;;;;;;;69.80;34.57;;;6.70;99.90;;;;;;4948037;28;20702;-59
2021/11/15 06:20:30;;;;;;;67.93;34.10;;;6.70;99.90;;;;;;4947374;28;20385;-60
2021/11/15 06:22:58;;;;;;;72.53;35.73;;;6.70;99.90;;;;;;4947587;29;20258;-59
2021/11/15 06:25:26;;;;;;;67.00;34.57;;;6.70;99.90;;;;;;4945621;29;20250;-61
2021/11/15 06:27:56;;;;;;;68.00;34.30;;;6.70;99.90;;;;;;4948380;29;20262;-61
2021/11/15 06:30:24;;;;;;;68.37;34.57;;;6.70;99.90;;;;;;4947498;29;20266;-61
2021/11/15 06:32:52;;;;;;;71.90;36.07;;;6.70;99.90;;;;;;4947227;28;20235;-60
2021/11/15 06:35:21;;;;;;;72.23;35.37;;;6.80;99.90;;;;;;4947616;29;20243;-60
2021/11/15 06:37:49;;;;;;;70.93;35.53;;;6.80;99.90;;;;;;4945760;28;20255;-60
2021/11/15 06:40:18;;;;;;;67.33;35.30;;;6.70;99.90;;;;;;4944470;29;20270;-61
2021/11/15 06:42:47;;;;;;;66.90;35.87;;;6.70;99.90;;;;;;4945129;29;20242;-61
2021/11/15 06:45:17;;;;;;;70.40;34.77;;;6.60;99.90;;;;;;4947175;29;20722;-61
2021/11/15 06:47:46;;;;;;;66.50;35.57;;;6.70;99.90;;;;;;4941823;29;20921;-60
2021/11/15 06:50:17;;;;;;;69.80;35.57;;;6.60;99.90;;;;;;4947014;29;20379;-61
2021/11/15 06:52:45;;;;;;;71.57;35.27;;;6.70;99.90;;;;;;4946566;29;20274;-63
2021/11/15 06:55:15;;;;;;;61.67;32.97;;;6.60;99.90;;;;;;4947705;29;20259;-61
2021/11/15 06:57:43;;;;;;;69.70;35.40;;;6.70;99.90;;;;;;4947816;29;20774;-63
2021/11/15 07:00:16;;;;;;;64.17;33.97;;;6.70;99.90;;;;;;4946421;28;21355;-61
2021/11/15 07:02:50;;;;;;;64.10;33.50;;;6.60;99.90;;;;;;4940239;28;20294;-61
2021/11/15 07:05:21;;;;;;;62.57;33.00;;;6.70;99.90;;;;;;4945789;28;20493;-60
2021/11/15 07:07:50;;;;;;;62.03;33.23;;;6.70;99.90;;;;;;4946241;29;20290;-61
2021/11/15 07:10:20;;;;;;;64.90;34.23;;;6.70;99.90;;;;;;4945323;28;20585;-60
2021/11/15 07:12:49;;;;;;;62.57;33.33;;;6.70;99.90;;;;;;4939097;29;20485;-61
2021/11/15 07:15:19;;;;;;;59.97;32.77;;;6.60;99.90;;;;;;4939749;29;20274;-61
2021/11/15 07:17:49;;;;;;;61.00;33.60;;;6.70;99.90;;;;;;4945626;29;20283;-61
2021/11/15 07:20:17;;;;;;;56.90;31.77;;;6.70;99.90;;;;;;4940035;28;20362;-60
2021/11/15 07:22:48;;;;;;;57.77;31.57;;;6.70;99.90;;;;;;4939848;29;20267;-60
2021/11/15 07:25:16;;;;;;;59.73;33.20;;;6.70;99.90;;;;;;4945494;28;20267;-62
2021/11/15 07:27:45;;;;;;;58.13;32.77;;;6.70;99.90;;;;;;4944700;29;20611;-62
2021/11/15 07:30:13;;;;;;;55.77;31.97;;;6.70;99.90;;;;;;4946153;29;20502;-61
2021/11/15 07:32:42;;;;;;;53.80;31.30;;;6.70;99.90;;;;;;4948280;29;20805;-60
2021/11/15 07:35:12;;;;;;;53.87;31.47;;;6.70;99.90;;;;;;4948754;29;21086;-62
2021/11/15 07:37:40;;;;;;;52.90;29.47;;;6.70;99.90;;;;;;4949250;29;20239;-62
2021/11/15 07:40:10;;;;;;;53.87;31.07;;;6.80;99.90;;;;;;4948762;28;20582;-62
2021/11/15 07:42:38;;;;;;;52.83;31.63;;;6.80;99.90;;;;;;4948021;29;20270;-61
2021/11/15 07:45:08;;;;;;;52.20;31.20;;;6.80;99.90;;;;;;4948867;29;20239;-60
2021/11/15 07:47:36;;;;;;;56.97;31.83;;;6.80;99.90;;;;;;4948860;28;20791;-61
2021/11/15 07:50:07;;;;;;;54.03;30.37;;;6.80;99.90;;;;;;4948777;29;20559;-62
2021/11/15 07:53:06;;;;;;;52.37;30.87;;;6.80;99.90;;;;;;4946083;29;20254;-60
2021/11/15 07:55:35;;;;;;;54.40;32.23;;;6.80;99.90;;;;;;4949001;28;20303;-61
2021/11/15 07:58:04;;;;;;;51.43;30.10;;;6.80;99.90;;;;;;4949077;28;20254;-61
2021/11/15 08:00:33;;;;;;;52.40;29.23;;;6.80;99.90;;;;;;4949678;29;20719;-62
2021/11/15 08:03:02;;;;;;;56.13;30.27;;;6.90;99.90;;;;;;4948876;29;20330;-61
2021/11/15 08:05:30;;;;;;;48.50;27.80;;;6.80;99.90;;;;;;4945735;29;20243;-61
2021/11/15 08:07:58;;;;;;;49.90;29.80;;;6.90;99.90;;;;;;4945041;28;20242;-60
2021/11/15 08:10:28;;;;;;;49.20;28.50;;;6.90;99.90;;;;;;4948187;29;20285;-60
2021/11/15 08:12:57;;;;;;;52.17;31.47;;;6.90;99.90;;;;;;4948260;29;20242;-61
2021/11/15 08:15:27;;;;;;;48.70;29.20;;;7.00;99.90;;;;;;4948474;28;20278;-60
2021/11/15 08:17:57;;;;;;;49.10;30.17;;;7.00;99.90;;;;;;4947613;28;20585;-62
2021/11/15 08:20:27;;;;;;;51.33;29.53;;;7.00;99.90;;;;;;4946499;29;20685;-61
2021/11/15 08:22:58;;;;;;;50.00;30.23;;;7.00;99.90;;;;;;4942951;28;20607;-61
2021/11/15 08:25:59;;;;;;;53.00;30.13;;;7.00;99.90;;;;;;4947540;29;20751;-61
2021/11/15 08:28:30;;;;;;;53.53;30.00;;;7.00;99.90;;;;;;4906021;28;20243;-62
2021/11/15 08:31:01;;;;;;;50.13;29.67;;;7.00;99.90;;;;;;4947258;29;20337;-61
2021/11/15 08:33:30;;;;;;;47.73;29.67;;;7.00;99.90;;;;;;4943788;29;20301;-61
2021/11/15 08:35:59;;;;;;;49.23;30.63;;;7.00;99.90;;;;;;4948086;29;20277;-61
2021/11/15 08:38:55;;;;;;;48.93;29.40;;;7.00;99.90;;;;;;4948876;29;20321;-60
2021/11/15 08:41:26;;;;;;;53.50;31.27;;;7.00;99.90;;;;;;4930691;29;20326;-62
2021/11/15 08:43:57;;;;;;;55.60;30.73;;;7.00;99.90;;;;;;4948197;29;20254;-60
2021/11/15 08:46:27;;;;;;;58.10;31.33;;;7.00;99.90;;;;;;4947959;28;20239;-61
2021/11/15 08:49:03;;;;;;;53.30;30.60;;;7.00;99.90;;;;;;4948739;29;20238;-60
2021/11/15 08:51:32;;;;;;;52.00;30.87;;;7.10;99.90;;;;;;4944957;29;20262;-60
2021/11/15 08:54:00;;;;;;;52.97;31.57;;;6.90;99.90;;;;;;4946412;29;20231;-62
2021/11/15 08:56:28;;;;;;;56.73;32.60;;;6.90;99.90;;;;;;4944284;28;20322;-62
2021/11/15 08:59:19;;;;;;;60.88;40.70;;;7.00;99.90;;;;;;4943676;28;20444;-62
2021/11/15 09:01:47;;;;;;;54.50;38.72;;;6.90;99.90;;;;;;4937629;29;20992;-62
2021/11/15 09:04:16;;;;;;;54.47;32.63;;;6.90;99.90;;;;;;4947511;29;20250;-63
2021/11/15 09:06:45;;;;;;;55.20;32.03;;;6.90;99.90;;;;;;4948755;29;20270;-62
2021/11/15 09:09:15;;;;;;;53.50;30.60;;;7.00;99.90;;;;;;4946950;29;20231;-63
2021/11/15 09:11:44;;;;;;;54.47;32.00;;;6.90;99.90;;;;;;4948221;29;20243;-62
2021/11/15 09:14:13;;;;;;;55.30;32.87;;;7.00;99.90;;;;;;4941925;29;20243;-63
2021/11/15 09:16:44;;;;;;;48.90;29.20;;;7.00;99.90;;;;;;4949372;29;20235;-63
2021/11/15 09:19:12;;;;;;;57.20;32.83;;;7.00;99.90;;;;;;4948638;29;20253;-63
2021/11/15 09:21:41;;;;;;;54.23;31.83;;;7.00;99.90;;;;;;4943020;28;20274;-62
2021/11/15 09:24:13;;;;;;;57.33;31.93;;;7.10;99.90;;;;;;4948792;29;20226;-62
2021/11/15 09:26:41;;;;;;;53.77;31.70;;;7.00;99.90;;;;;;4947553;28;20322;-63
2021/11/15 09:29:11;;;;;;;58.47;31.17;;;7.00;99.90;;;;;;4948084;29;20266;-62
2021/11/15 09:31:39;;;;;;;53.57;30.07;;;7.00;99.90;;;;;;4944241;29;20587;-63
2021/11/15 09:34:09;;;;;;;52.73;31.20;;;7.00;99.90;;;;;;4945376;28;20287;-68
2021/11/15 09:36:39;;;;;;;52.53;30.37;;;7.10;99.90;;;;;;4941536;28;20234;-66
2021/11/15 09:39:08;;;;;;;55.03;32.30;;;7.10;99.90;;;;;;4944171;29;20679;-65
2021/11/15 09:41:37;;;;;;;57.63;33.53;;;7.00;99.90;;;;;;4944305;29;20266;-65
2021/11/15 09:44:06;;;;;;;58.50;32.57;;;7.00;99.90;;;;;;4939529;29;20240;-65
2021/11/15 09:46:34;;;;;;;57.00;31.90;;;7.00;99.90;;;;;;4941282;28;20243;-65
2021/11/15 09:49:10;;;;;;;54.53;31.73;;;7.00;99.90;;;;;;4945659;28;20700;-65
2021/11/15 09:51:41;;;;;;;55.03;33.00;;;7.00;99.90;;;;;;4939848;28;20235;-65
2021/11/15 09:54:12;;;;;;;55.73;33.47;;;7.00;99.90;;;;;;4945003;28;20242;-65
2021/11/15 09:56:40;;;;;;;58.77;32.30;;;7.00;99.90;;;;;;4942861;28;20235;-66
2021/11/15 09:59:11;;;;;;;58.00;31.37;;;6.90;99.90;;;;;;4947842;29;20255;-65
2021/11/15 10:01:40;;;;;;;57.70;32.87;;;6.90;99.90;;;;;;4942104;28;20310;-65
2021/11/15 10:04:09;;;;;;;56.80;32.43;;;7.00;99.90;;;;;;4944498;28;20256;-66
2021/11/15 10:06:39;;;;;;;57.50;32.17;;;7.00;99.90;;;;;;4945942;28;20705;-66
2021/11/15 10:09:07;;;;;;;58.33;33.27;;;6.90;99.90;;;;;;4940321;28;20242;-66
2021/11/15 10:11:44;;;;;;;57.37;32.47;;;6.80;99.90;;;;;;4941218;28;20669;-66
2021/11/15 10:14:13;;;;;;;53.13;31.00;;;6.80;99.90;;;;;;4940519;28;20325;-62
2021/11/15 10:16:48;;;;;;;55.27;31.27;;;6.80;99.90;;;;;;4944388;28;20778;-63
2021/11/15 10:19:16;;;;;;;57.23;32.67;;;6.80;99.90;;;;;;4946864;29;20269;-62
2021/11/15 10:21:50;;;;;;;65.20;33.77;;;6.90;99.90;;;;;;4947456;29;20854;-64
2021/11/15 10:24:20;;;;;;;66.47;33.30;;;6.90;99.90;;;;;;4948584;29;20238;-62
2021/11/15 10:26:53;;;;;;;56.17;31.67;;;6.80;99.90;;;;;;4948234;28;20334;-62
2021/11/15 10:29:32;;;;;;;56.90;31.93;;;6.90;99.90;;;;;;4947773;29;20514;-62
2021/11/15 10:32:03;;;;;;;63.83;32.97;;;6.90;99.90;;;;;;4948128;29;20311;-62
2021/11/15 10:34:35;;;;;;;62.67;33.03;;;6.90;99.90;;;;;;4946209;29;20274;-63
2021/11/15 10:37:10;;;;;;;57.73;32.20;;;7.00;99.90;;;;;;4948110;29;20322;-63
2021/11/15 10:39:48;;;;;;;56.97;32.20;;;7.00;99.90;;;;;;4947311;28;20251;-62
2021/11/15 10:42:20;;;;;;;58.40;32.83;;;7.00;99.90;;;;;;4947538;28;20298;-62
2021/11/15 10:44:51;;;;;;;55.07;29.47;;;7.00;99.90;;;;;;4948373;29;20235;-62
2021/11/15 10:47:25;;;;;;;56.97;32.67;;;7.10;99.90;;;;;;4947749;28;20235;-62
2021/11/15 10:50:01;;;;;;;52.97;30.87;;;7.10;99.90;;;;;;4946239;29;20317;-62
2021/11/15 10:52:33;;;;;;;57.13;32.03;;;7.20;99.90;;;;;;4945138;29;20246;-62
2021/11/15 10:55:04;;;;;;;58.27;32.50;;;7.10;99.90;;;;;;4948584;29;20262;-62
2021/11/15 10:57:38;;;;;;;53.23;31.40;;;7.20;99.90;;;;;;4946865;29;20330;-62
2021/11/15 11:00:39;;;;;;;55.67;31.10;;;7.10;99.90;;;;;;4947312;29;20238;-62
2021/11/15 11:03:17;;;;;;;56.47;32.03;;;7.10;99.90;;;;;;4948258;28;20610;-62
2021/11/15 11:05:47;;;;;;;55.03;31.77;;;7.10;99.90;;;;;;4951799;29;20570;-62
2021/11/15 11:08:21;;;;;;;58.53;32.60;;;7.10;99.90;;;;;;4951562;28;20267;-62
2021/11/15 11:11:25;;;;;;;54.50;30.67;;;7.10;99.90;;;;;;4951189;29;20261;-62
2021/11/15 11:13:57;;;;;;;53.07;31.57;;;7.20;99.90;;;;;;4947178;29;20242;-62
2021/11/15 11:16:40;;;;;;;53.37;31.50;;;7.20;99.90;;;;;;4951107;29;20261;-62
2021/11/15 11:19:17;;;;;;;58.53;31.87;;;7.20;99.90;;;;;;4951185;29;20266;-62
2021/11/15 11:27:10;;;;;;;56.73;32.03;;;7.20;99.90;;;;;;4950448;29;20341;-62
2021/11/15 11:29:41;;;;;;;55.83;32.43;;;7.20;99.90;;;;;;4949713;29;20263;-62
2021/11/15 11:32:11;;;;;;;52.90;30.87;;;7.20;99.90;;;;;;4948203;29;20238;-62
2021/11/15 11:34:41;;;;;;;52.47;32.77;;;7.20;99.90;;;;;;4949712;28;20690;-62
2021/11/15 11:37:12;;;;;;;51.17;31.13;;;7.30;99.90;;;;;;4949167;29;20330;-62
2021/11/15 11:39:44;;;;;;;54.00;30.83;;;7.30;99.90;;;;;;4949567;29;20632;-63
2021/11/15 11:42:15;;;;;;;52.93;31.00;;;7.40;99.90;;;;;;4948285;29;20672;-63
2021/11/15 11:44:43;;;;;;;52.13;29.60;;;7.40;99.90;;;;;;4947638;29;20286;-62
2021/11/15 11:47:14;;;;;;;54.53;32.83;;;7.30;99.90;;;;;;4948769;28;20231;-62
2021/11/15 11:49:43;;;;;;;58.03;32.70;;;7.30;99.90;;;;;;4949811;29;20759;-62
2021/11/15 11:52:15;;;;;;;49.80;30.93;;;7.30;99.90;;;;;;4949217;29;20699;-62
2021/11/15 11:54:47;;;;;;;51.80;31.00;;;7.30;99.90;;;;;;4943428;29;20726;-62
2021/11/15 11:57:44;;;;;;;50.60;31.60;;;7.30;99.90;;;;;;4943480;29;20382;-62
2021/11/15 12:00:15;;;;;;;51.17;31.30;;;7.20;99.90;;;;;;4949045;29;20275;-62
2021/11/15 12:02:44;;;;;;;49.67;30.50;;;7.20;99.90;;;;;;4949014;29;20685;-62
2021/11/15 12:05:14;;;;;;;55.13;32.77;;;7.20;99.90;;;;;;4944276;29;20275;-61
2021/11/15 12:07:49;;;;;;;55.07;31.70;;;7.20;99.90;;;;;;4948811;29;20257;-61
2021/11/15 12:10:37;;;;;;;52.50;31.47;;;7.20;99.90;;;;;;4947707;29;20322;-62
2021/11/15 12:13:07;;;;;;;51.73;30.83;;;7.30;99.90;;;;;;4946429;29;20763;-63
2021/11/15 12:15:40;;;;;;;51.03;31.93;;;7.30;99.90;;;;;;4946804;28;20241;-61
2021/11/15 12:18:14;;;;;;;51.77;32.30;;;7.20;99.90;;;;;;4948633;29;20247;-62
2021/11/15 12:21:21;;;;;;;54.97;31.67;;;7.30;99.90;;;;;;4945617;29;20329;-62
2021/11/15 12:24:16;;;;;;;53.67;30.83;;;7.30;99.90;;;;;;4928387;29;20434;-63
2021/11/15 12:26:48;;;;;;;50.67;31.17;;;7.40;99.90;;;;;;4948178;29;20251;-62
2021/11/15 12:29:27;;;;;;;51.80;31.93;;;7.30;99.90;;;;;;4947672;29;20247;-62
2021/11/15 12:31:58;;;;;;;49.37;30.17;;;7.30;99.90;;;;;;4948782;29;20735;-62
2021/11/15 12:34:28;;;;;;;50.37;31.27;;;7.30;99.90;;;;;;4947602;29;20322;-62
2021/11/15 12:36:58;;;;;;;54.50;31.27;;;7.30;99.90;;;;;;4948446;28;20263;-62
2021/11/15 12:39:30;;;;;;;48.30;30.87;;;7.30;99.90;;;;;;4944214;28;20482;-62
2021/11/15 12:42:01;;;;;;;51.20;30.80;;;7.30;99.90;;;;;;4947655;29;20234;-63
2021/11/15 12:44:34;;;;;;;46.13;29.63;;;7.30;99.90;;;;;;4943103;29;20290;-61
2021/11/15 12:47:13;;;;;;;50.07;30.57;;;7.30;99.90;;;;;;4948215;28;20251;-62
2021/11/15 12:49:44;;;;;;;52.13;31.53;;;7.30;99.90;;;;;;4942499;29;20282;-61
2021/11/15 12:52:27;;;;;;;48.27;29.00;;;7.30;99.90;;;;;;4943284;29;20265;-63
2021/11/15 12:55:00;;;;;;;49.53;30.97;;;7.30;99.90;;;;;;4941723;29;20255;-62
2021/11/15 12:57:39;;;;;;;49.30;30.83;;;7.40;99.90;;;;;;4946466;29;20537;-62
2021/11/15 13:00:14;;;;;;;52.27;30.43;;;7.40;99.90;;;;;;4947558;29;20321;-62